Terminal Aerodrome Forecast
Issued by NWS

Current Version | Previous Version | Text Only | Print | Product List | Glossary On
Versions: 1 2 3 4 5 6 7 8 9 10 11 12 13 14 15 16 17 18 19 20
000
FTUS41 KILN 172345
TAFLUK
TAF
KLUK 172345Z 1800/1824 19004KT P6SM OVC045
     FM180400 19004KT P6SM OVC028
     FM180600 20005KT P6SM OVC018
     FM180900 20005KT P6SM -DZ OVC009
     FM182100 23008KT P6SM OVC015=

USA.gov is the U.S. government's official web portal to all federal, state and local government web resources and services.